createdAt,value
2018-05-11T00:02:25.603Z,15.74
2018-05-11T00:04:58.304Z,16.43
2018-05-11T00:07:27.526Z,15.84
2018-05-11T00:09:58.053Z,15.72
2018-05-11T00:12:27.310Z,15.65
2018-05-11T00:14:56.289Z,15.61
2018-05-11T00:17:26.798Z,15.56
2018-05-11T00:19:57.072Z,15.49
2018-05-11T00:22:30.449Z,15.47
2018-05-11T00:24:58.604Z,16.17
2018-05-11T00:27:29.466Z,15.62
2018-05-11T00:30:01.392Z,15.47
2018-05-11T00:32:30.300Z,15.37
2018-05-11T00:34:59.278Z,15.29
2018-05-11T00:37:28.083Z,15.27
2018-05-11T00:39:58.602Z,15.20
2018-05-11T00:42:27.868Z,15.16
2018-05-11T00:44:59.612Z,15.13
2018-05-11T00:47:29.717Z,15.11
2018-05-11T00:49:59.996Z,15.82
2018-05-11T00:52:38.333Z,15.23
2018-05-11T00:55:49.715Z,15.04
2018-05-11T00:58:18.555Z,14.89
2018-05-11T01:00:48.533Z,14.86
2018-05-11T01:06:11.521Z,14.73
2018-05-11T01:08:41.916Z,14.67
2018-05-11T01:11:10.585Z,14.64
2018-05-11T01:13:39.561Z,14.63
2018-05-11T01:16:17.692Z,14.63
2018-05-11T01:18:46.872Z,14.61
2018-05-11T01:21:15.497Z,14.56
2018-05-11T01:23:44.299Z,14.52
2018-05-11T01:26:13.159Z,14.50
2018-05-11T01:28:42.436Z,14.46
2018-05-11T01:31:18.869Z,14.43
2018-05-11T01:33:50.539Z,14.43
2018-05-11T01:36:22.432Z,14.42
2018-05-11T01:38:48.895Z,14.40
2018-05-11T01:41:21.119Z,14.37
2018-05-11T01:43:50.167Z,14.36
2018-05-11T01:46:18.779Z,14.30
2018-05-11T01:48:48.451Z,14.27
2018-05-11T01:51:17.037Z,14.97
2018-05-11T01:53:49.877Z,14.45
2018-05-11T01:56:19.497Z,14.29
2018-05-11T01:58:50.520Z,14.98
2018-05-11T02:01:24.455Z,14.42
2018-05-11T02:06:40.845Z,14.18
2018-05-11T02:09:11.966Z,14.09
2018-05-11T02:11:46.777Z,14.01
2018-05-11T02:14:15.479Z,14.00
2018-05-11T02:16:44.805Z,13.92
2018-05-11T02:19:17.033Z,13.87
2018-05-11T02:21:45.741Z,13.84
2018-05-11T02:24:14.415Z,13.80
2018-05-11T02:26:43.423Z,13.78
2018-05-11T02:29:12.033Z,13.76
2018-05-11T02:31:41.026Z,14.49
2018-05-11T02:34:10.461Z,13.98
2018-05-11T02:36:43.471Z,13.86
2018-05-11T02:39:12.503Z,13.80
2018-05-11T02:41:41.177Z,13.78
2018-05-11T02:44:10.510Z,13.72
2018-05-11T02:46:39.449Z,14.44
2018-05-11T02:49:08.630Z,14.58
2018-05-11T02:51:37.924Z,14.64
2018-05-11T02:54:07.159Z,14.04
2018-05-11T02:56:36.078Z,13.85
2018-05-11T02:59:04.908Z,13.72
2018-05-11T03:01:34.272Z,13.64
2018-05-11T03:04:03.125Z,13.56
2018-05-11T03:06:32.119Z,13.49
2018-05-11T03:09:01.083Z,13.45
2018-05-11T03:11:30.144Z,13.44
2018-05-11T03:13:59.062Z,13.42
2018-05-11T03:16:27.677Z,13.41
2018-05-11T03:19:01.314Z,13.43
2018-05-11T03:21:32.975Z,13.41
2018-05-11T03:24:01.638Z,13.41
2018-05-11T03:26:30.273Z,13.43
2018-05-11T03:28:58.914Z,13.43
2018-05-11T03:31:27.542Z,13.44
2018-05-11T03:33:56.213Z,14.21
2018-05-11T03:36:25.045Z,13.70
2018-05-11T03:38:56.917Z,13.62
2018-05-11T03:41:25.558Z,13.57
2018-05-11T03:43:54.501Z,13.53
2018-05-11T03:46:25.797Z,13.55
2018-05-11T03:48:55.705Z,13.54
2018-05-11T03:51:29.360Z,13.55
2018-05-11T03:53:58.454Z,13.57
2018-05-11T03:56:27.350Z,13.57
2018-05-11T03:58:56.316Z,13.61
2018-05-11T04:02:02.318Z,13.63
2018-05-11T04:05:08.310Z,13.63
2018-05-11T04:08:06.815Z,13.62
2018-05-11T04:10:36.159Z,13.64
2018-05-11T04:13:05.475Z,13.69
2018-05-11T04:15:37.404Z,13.73
2018-05-11T04:18:06.948Z,13.77
2018-05-11T04:20:36.226Z,13.79
2018-05-11T04:23:05.361Z,13.83
2018-05-11T04:25:35.525Z,13.86
2018-05-11T04:28:04.838Z,13.92
2018-05-11T04:30:33.772Z,13.95
2018-05-11T04:33:04.960Z,13.98
2018-05-11T04:35:34.046Z,13.98
2018-05-11T04:38:02.968Z,14.02
2018-05-11T04:40:32.435Z,14.05
2018-05-11T04:43:01.579Z,14.05
2018-05-11T04:45:30.542Z,14.09
2018-05-11T04:48:01.464Z,14.14
2018-05-11T04:50:30.545Z,15.01
2018-05-11T04:52:59.513Z,14.47
2018-05-11T04:55:28.606Z,14.41
2018-05-11T04:57:57.629Z,15.27
2018-05-11T05:00:26.975Z,14.73
2018-05-11T05:02:58.127Z,14.68
2018-05-11T05:05:26.894Z,14.66
2018-05-11T05:07:55.849Z,14.67
2018-05-11T05:10:24.831Z,14.69
2018-05-11T05:12:53.658Z,14.70
2018-05-11T05:15:22.798Z,14.68
2018-05-11T05:17:51.434Z,14.66
2018-05-11T05:20:20.507Z,14.70
2018-05-11T05:22:49.474Z,14.68
2018-05-11T05:25:18.698Z,14.68
2018-05-11T05:27:47.326Z,15.58
2018-05-11T05:30:16.239Z,15.02
2018-05-11T05:32:44.863Z,14.95
2018-05-11T05:35:14.433Z,14.96
2018-05-11T05:37:43.244Z,15.00
2018-05-11T05:40:11.981Z,15.03
2018-05-11T05:42:40.871Z,15.11
2018-05-11T05:45:09.609Z,15.11
2018-05-11T05:47:38.247Z,15.19
2018-05-11T05:50:07.017Z,15.24
2018-05-11T05:52:36.197Z,15.33
2018-05-11T05:55:04.807Z,15.43
2018-05-11T05:57:33.437Z,16.45
2018-05-11T06:00:02.193Z,15.78
2018-05-11T06:02:30.821Z,15.76
2018-05-11T06:04:59.721Z,15.75
2018-05-11T06:07:28.367Z,15.77
2018-05-11T06:09:56.999Z,15.77
2018-05-11T06:12:25.658Z,16.77
2018-05-11T06:14:54.294Z,16.12
2018-05-11T06:17:22.949Z,16.99
2018-05-11T06:20:01.712Z,16.25
2018-05-11T06:22:23.630Z,16.08
2018-05-11T06:24:52.365Z,16.08
2018-05-11T06:27:21.405Z,16.15
2018-05-11T06:29:50.018Z,17.22
2018-05-11T06:32:20.402Z,16.69
2018-05-11T06:34:49.321Z,17.73
2018-05-11T06:37:20.361Z,16.95
2018-05-11T06:39:50.474Z,16.70
2018-05-11T06:42:21.135Z,17.59
2018-05-11T06:44:48.297Z,16.72
2018-05-11T06:47:17.028Z,17.49
2018-05-11T06:49:46.152Z,16.70
2018-05-11T06:52:15.062Z,16.46
2018-05-11T06:54:49.163Z,16.35
2018-05-11T06:57:15.254Z,17.37
2018-05-11T06:59:43.866Z,16.64
2018-05-11T07:02:13.204Z,16.54
2018-05-11T07:04:41.977Z,16.46
2018-05-11T07:07:10.600Z,16.48
2018-05-11T07:09:39.249Z,17.50
2018-05-11T07:12:07.901Z,16.85
2018-05-11T07:14:36.534Z,16.76
2018-05-11T07:17:07.988Z,16.84
2018-05-11T07:19:36.930Z,16.89
2018-05-11T07:22:05.761Z,16.99
2018-05-11T07:24:34.891Z,17.01
2018-05-11T07:27:03.862Z,17.07
2018-05-11T07:29:37.961Z,17.05
2018-05-11T07:32:06.924Z,17.06
2018-05-11T07:34:36.244Z,17.10
2018-05-11T07:37:05.500Z,17.14
2018-05-11T07:39:35.392Z,18.19
2018-05-11T07:42:04.617Z,17.44
2018-05-11T07:44:33.672Z,17.37
2018-05-11T07:47:02.591Z,17.39
2018-05-11T07:49:31.550Z,17.48
2018-05-11T07:52:00.457Z,17.59
2018-05-11T07:54:29.477Z,17.64
2018-05-11T07:57:01.239Z,17.76
2018-05-11T07:59:30.119Z,18.03
2018-05-11T08:01:59.067Z,18.29
2018-05-11T08:04:27.956Z,18.55
2018-05-11T08:06:56.804Z,18.84
2018-05-11T08:09:25.758Z,18.92
2018-05-11T08:11:54.741Z,18.99
2018-05-11T08:14:23.489Z,18.98
2018-05-11T08:16:52.026Z,19.10
2018-05-11T08:19:21.064Z,20.62
2018-05-11T08:21:50.239Z,19.62
2018-05-11T08:24:20.558Z,19.64
2018-05-11T08:26:49.247Z,19.60
2018-05-11T08:29:17.832Z,19.49
2018-05-11T08:31:46.561Z,19.45
2018-05-11T08:34:16.050Z,19.50
2018-05-11T08:36:45.623Z,19.70
2018-05-11T08:39:14.576Z,19.94
2018-05-11T08:41:43.189Z,20.20
2018-05-11T08:44:11.872Z,20.15
2018-05-11T08:49:28.145Z,19.97
2018-05-11T08:51:57.129Z,19.94
2018-05-11T08:54:25.983Z,20.36
2018-05-11T08:56:54.626Z,20.44
2018-05-11T08:59:23.268Z,20.42
2018-05-11T09:01:51.993Z,20.24
2018-05-11T09:04:20.769Z,20.22
2018-05-11T09:06:49.436Z,20.51
2018-05-11T09:09:18.064Z,20.81
2018-05-11T09:11:47.096Z,20.87
2018-05-11T09:14:15.582Z,21.98
2018-05-11T09:16:48.884Z,21.17
2018-05-11T09:19:20.122Z,21.42
2018-05-11T09:21:49.015Z,22.99
2018-05-11T09:24:17.738Z,21.78
2018-05-11T09:26:46.496Z,21.55
2018-05-11T09:29:15.254Z,21.65
2018-05-11T09:31:44.321Z,21.94
2018-05-11T09:34:12.905Z,21.90
2018-05-11T09:36:41.849Z,22.02
2018-05-11T09:39:12.193Z,22.19
2018-05-11T09:41:41.040Z,22.27
2018-05-11T09:44:09.801Z,23.58
2018-05-11T09:46:38.438Z,22.55
2018-05-11T09:49:07.057Z,23.81
2018-05-11T09:51:37.737Z,23.07
2018-05-11T09:54:06.347Z,24.30
2018-05-11T09:56:35.009Z,23.42
2018-05-11T09:59:03.637Z,23.20
2018-05-11T10:01:32.267Z,22.93
2018-05-11T10:04:00.871Z,22.71
2018-05-11T10:06:29.598Z,22.80
2018-05-11T10:08:58.236Z,22.81
2018-05-11T10:11:26.886Z,22.84
2018-05-11T10:13:55.519Z,22.71
2018-05-11T10:16:24.131Z,24.30
2018-05-11T10:18:52.901Z,23.31
2018-05-11T10:21:21.514Z,23.38
2018-05-11T10:23:50.707Z,23.49
2018-05-11T10:26:40.718Z,23.49
2018-05-11T10:29:09.770Z,23.26
2018-05-11T10:31:39.228Z,23.28
2018-05-11T10:34:11.279Z,23.37
2018-05-11T10:36:39.854Z,23.34
2018-05-11T10:39:08.880Z,23.61
2018-05-11T10:41:37.571Z,23.74
2018-05-11T10:44:06.410Z,23.79
2018-05-11T10:46:35.148Z,23.90
2018-05-11T10:49:03.907Z,24.04
2018-05-11T10:51:32.826Z,24.08
2018-05-11T10:54:01.768Z,24.28
2018-05-11T10:56:30.422Z,23.94
2018-05-11T10:58:59.627Z,23.79
2018-05-11T11:01:30.971Z,23.71
2018-05-11T11:04:00.120Z,23.72
2018-05-11T11:06:29.089Z,23.53
2018-05-11T11:08:58.375Z,23.20
2018-05-11T11:11:27.161Z,23.34
2018-05-11T11:13:59.901Z,23.80
2018-05-11T11:16:28.461Z,24.19
2018-05-11T11:18:57.105Z,24.71
2018-05-11T11:21:25.863Z,25.08
2018-05-11T11:23:54.823Z,25.29
2018-05-11T11:26:23.525Z,25.01
2018-05-11T11:28:52.618Z,26.04
2018-05-11T11:31:22.716Z,24.49
2018-05-11T11:33:53.606Z,25.17
2018-05-11T11:36:23.465Z,23.88
2018-05-11T11:38:54.965Z,23.58
2018-05-11T11:41:24.407Z,23.55
2018-05-11T11:43:55.413Z,23.59
2018-05-11T11:46:25.174Z,24.05
2018-05-11T11:48:56.151Z,24.12
2018-05-11T11:51:26.197Z,24.31
2018-05-11T11:53:54.873Z,24.44
2018-05-11T11:56:25.065Z,24.50
2018-05-11T11:58:53.767Z,24.42
2018-05-11T12:01:24.044Z,24.31
2018-05-11T12:03:55.651Z,24.25
2018-05-11T12:06:25.977Z,24.48
2018-05-11T12:08:56.740Z,24.72
2018-05-11T12:11:26.665Z,25.00
2018-05-11T12:13:58.960Z,25.62
2018-05-11T12:16:27.862Z,26.16
2018-05-11T12:18:57.410Z,28.26
2018-05-11T12:21:28.023Z,26.93
2018-05-11T12:23:58.269Z,26.29
2018-05-11T12:26:27.256Z,25.93
2018-05-11T12:28:55.943Z,25.70
2018-05-11T12:31:24.685Z,25.44
2018-05-11T12:33:57.768Z,25.24
2018-05-11T12:36:26.494Z,25.15
2018-05-11T12:38:57.691Z,25.24
2018-05-11T12:41:26.544Z,25.25
2018-05-11T12:43:55.165Z,27.22
2018-05-11T12:46:24.497Z,26.47
2018-05-11T12:48:53.472Z,26.33
2018-05-11T12:51:22.371Z,26.40
2018-05-11T12:53:52.354Z,26.42
2018-05-11T12:56:23.950Z,26.45
2018-05-11T12:58:52.537Z,26.57
2018-05-11T13:01:21.205Z,28.35
2018-05-11T13:03:49.818Z,28.62
2018-05-11T13:06:19.488Z,28.61
2018-05-11T13:08:48.379Z,27.66
2018-05-11T13:11:17.898Z,27.53
2018-05-11T13:13:46.785Z,27.07
2018-05-11T13:16:15.423Z,26.67
2018-05-11T13:18:44.180Z,26.38
2018-05-11T13:21:13.046Z,26.22
2018-05-11T13:23:41.641Z,25.92
2018-05-11T13:26:10.423Z,27.19
2018-05-11T13:28:39.224Z,25.96
2018-05-11T13:31:08.009Z,25.89
2018-05-11T13:33:36.720Z,26.04
2018-05-11T13:36:06.017Z,25.61
2018-05-11T13:38:34.612Z,25.41
2018-05-11T13:41:03.228Z,25.39
2018-05-11T13:43:31.822Z,25.89
2018-05-11T13:46:00.444Z,26.20
2018-05-11T13:48:29.103Z,27.59
2018-05-11T13:50:57.654Z,26.71
2018-05-11T13:53:26.436Z,26.49
2018-05-11T13:55:55.052Z,26.34
2018-05-11T13:58:23.642Z,25.99
2018-05-11T14:00:52.315Z,25.67
2018-05-11T14:03:20.903Z,25.35
2018-05-11T14:05:49.518Z,26.91
2018-05-11T14:08:18.107Z,26.21
2018-05-11T14:10:46.732Z,25.93
2018-05-11T14:13:15.320Z,25.81
2018-05-11T14:15:43.942Z,26.20
2018-05-11T14:18:12.542Z,26.29
2018-05-11T14:20:41.166Z,26.43
2018-05-11T14:23:10.210Z,26.62
2018-05-11T14:25:38.832Z,26.50
2018-05-11T14:28:07.429Z,26.50
2018-05-11T14:30:36.147Z,26.55
2018-05-11T14:33:06.169Z,26.92
2018-05-11T14:35:35.614Z,28.73
2018-05-11T14:38:04.462Z,29.42
2018-05-11T14:40:33.587Z,28.69
2018-05-11T14:43:02.836Z,29.81
2018-05-11T14:45:33.044Z,29.05
2018-05-11T14:48:05.109Z,29.21
2018-05-11T14:50:33.979Z,30.50
2018-05-11T14:53:03.506Z,29.41
2018-05-11T14:55:32.430Z,29.01
2018-05-11T14:58:02.160Z,30.81
2018-05-11T15:00:31.124Z,30.16
2018-05-11T15:03:00.106Z,29.65
2018-05-11T15:05:28.589Z,28.81
2018-05-11T15:07:59.935Z,28.21
2018-05-11T15:10:28.556Z,27.84
2018-05-11T15:12:57.150Z,27.37
2018-05-11T15:15:25.758Z,27.30
2018-05-11T15:17:58.920Z,27.30
2018-05-11T15:20:27.948Z,27.28
2018-05-11T15:22:57.296Z,27.26
2018-05-11T15:25:26.405Z,27.38
2018-05-11T15:27:58.104Z,27.01
2018-05-11T15:30:27.241Z,26.49
2018-05-11T15:32:58.339Z,26.45
2018-05-11T15:35:27.254Z,26.19
2018-05-11T15:37:55.964Z,26.02
2018-05-11T15:40:29.164Z,25.83
2018-05-11T15:42:57.793Z,25.65
2018-05-11T15:45:26.374Z,25.60
2018-05-11T15:47:54.988Z,25.35
2018-05-11T15:50:23.622Z,25.15
2018-05-11T15:52:52.247Z,25.01
2018-05-11T15:55:20.835Z,24.94
2018-05-11T15:57:49.504Z,24.85
2018-05-11T16:00:24.077Z,24.75
2018-05-11T16:02:59.013Z,24.63
2018-05-11T16:05:29.472Z,25.91
2018-05-11T16:07:59.952Z,24.65
2018-05-11T16:10:28.755Z,24.15
2018-05-11T16:12:57.467Z,23.85
2018-05-11T16:15:25.995Z,25.10
2018-05-11T16:17:55.451Z,24.00
2018-05-11T16:20:24.368Z,23.57
2018-05-11T16:22:53.309Z,23.38
2018-05-11T16:25:22.589Z,23.26
2018-05-11T16:27:51.728Z,24.55
2018-05-11T16:30:22.586Z,23.66
2018-05-11T16:33:05.238Z,23.59
2018-05-11T16:35:40.465Z,23.56
2018-05-11T16:38:09.166Z,23.52
2018-05-11T16:40:38.165Z,23.59
2018-05-11T16:43:06.971Z,23.65
2018-05-11T16:45:36.983Z,23.76
2018-05-11T16:48:06.802Z,23.64
2018-05-11T16:50:35.660Z,23.56
2018-05-11T16:53:06.012Z,24.63
2018-05-11T16:55:36.185Z,24.77
2018-05-11T16:58:14.483Z,23.67
2018-05-11T17:00:43.258Z,23.28
2018-05-11T17:03:12.116Z,23.02
2018-05-11T17:05:41.575Z,22.69
2018-05-11T17:08:11.983Z,23.67
2018-05-11T17:10:42.573Z,22.80
2018-05-11T17:13:15.348Z,22.60
2018-05-11T17:15:46.110Z,22.58
2018-05-11T17:18:16.035Z,22.54
2018-05-11T17:20:46.138Z,22.47
2018-05-11T17:23:14.782Z,22.38
2018-05-11T17:25:45.540Z,23.35
2018-05-11T17:28:19.976Z,22.46
2018-05-11T17:30:51.179Z,22.16
2018-05-11T17:33:20.072Z,23.03
2018-05-11T17:35:48.697Z,23.05
2018-05-11T17:38:18.962Z,22.17
2018-05-11T17:40:50.454Z,21.89
2018-05-11T17:43:16.958Z,21.70
2018-05-11T17:45:45.591Z,21.40
2018-05-11T17:48:14.561Z,21.24
2018-05-11T17:50:43.498Z,21.08
2018-05-11T17:53:16.473Z,20.94
2018-05-11T17:55:45.589Z,20.74
2018-05-11T17:58:14.209Z,20.57
2018-05-11T18:00:46.705Z,20.44
2018-05-11T18:03:15.370Z,20.30
2018-05-11T18:05:44.615Z,20.20
2018-05-11T18:08:22.885Z,20.09
2018-05-11T18:10:51.525Z,20.95
2018-05-11T18:13:21.714Z,20.23
2018-05-11T18:15:57.336Z,19.97
2018-05-11T18:18:26.156Z,19.75
2018-05-11T18:20:59.877Z,19.62
2018-05-11T18:23:34.208Z,19.50
2018-05-11T18:26:11.212Z,19.41
2018-05-11T18:28:42.744Z,19.34
2018-05-11T18:31:18.598Z,19.28
2018-05-11T18:33:53.085Z,19.18
2018-05-11T18:36:23.232Z,20.00
2018-05-11T18:38:51.842Z,19.24
2018-05-11T18:41:20.920Z,19.03
2018-05-11T18:43:49.517Z,18.88
2018-05-11T18:46:18.134Z,18.78
2018-05-11T18:48:48.209Z,18.66
2018-05-11T18:51:16.844Z,18.52
2018-05-11T18:53:45.898Z,18.41
2018-05-11T18:56:14.751Z,18.28
2018-05-11T18:58:43.342Z,18.17
2018-05-11T19:01:11.962Z,18.05
2018-05-11T19:03:41.017Z,18.80
2018-05-11T19:06:09.661Z,18.06
2018-05-11T19:08:38.249Z,17.82
2018-05-11T19:11:06.879Z,17.65
2018-05-11T19:13:35.473Z,17.51
2018-05-11T19:16:04.099Z,17.39
2018-05-11T19:18:32.701Z,17.27
2018-05-11T19:21:01.328Z,17.15
2018-05-11T19:23:29.917Z,17.06
2018-05-11T19:25:58.518Z,16.96
2018-05-11T19:28:27.139Z,16.87
2018-05-11T19:30:55.740Z,16.78
2018-05-11T19:33:24.495Z,16.72
2018-05-11T19:35:53.094Z,16.66
2018-05-11T19:38:21.722Z,16.55
2018-05-11T19:40:50.347Z,16.46
2018-05-11T19:43:18.986Z,17.19
2018-05-11T19:45:47.575Z,16.55
2018-05-11T19:48:16.204Z,16.33
2018-05-11T19:50:44.809Z,16.16
2018-05-11T19:53:13.441Z,16.02
2018-05-11T19:55:42.039Z,15.93
2018-05-11T19:58:10.677Z,15.86
2018-05-11T20:00:39.729Z,15.78
2018-05-11T20:03:08.537Z,15.73
2018-05-11T20:05:37.437Z,15.65
2018-05-11T20:08:06.744Z,15.57
2018-05-11T20:10:35.641Z,15.49
2018-05-11T20:13:04.246Z,15.43
2018-05-11T20:15:32.852Z,15.35
2018-05-11T20:18:08.583Z,15.29
2018-05-11T20:20:40.748Z,15.25
2018-05-11T20:23:09.410Z,15.24
2018-05-11T20:25:38.027Z,15.22
2018-05-11T20:28:06.684Z,15.19
2018-05-11T20:30:35.305Z,15.17
2018-05-11T20:33:03.933Z,15.15
2018-05-11T20:35:33.592Z,15.13
2018-05-11T20:38:05.189Z,15.09
2018-05-11T20:40:33.795Z,15.05
2018-05-11T20:43:02.671Z,15.01
2018-05-11T20:45:31.656Z,15.73
2018-05-11T20:48:04.188Z,15.18
2018-05-11T20:50:33.167Z,15.06
2018-05-11T20:53:02.128Z,14.98
2018-05-11T20:55:33.968Z,14.90
2018-05-11T20:58:02.606Z,14.83
2018-05-11T21:00:31.220Z,14.78
2018-05-11T21:03:00.484Z,14.74
2018-05-11T21:05:29.178Z,14.70
2018-05-11T21:07:57.908Z,14.67
2018-05-11T21:10:27.270Z,14.61
2018-05-11T21:12:55.919Z,14.56
2018-05-11T21:15:25.427Z,14.53
2018-05-11T21:17:55.076Z,14.50
2018-05-11T21:20:28.283Z,14.48
2018-05-11T21:22:57.407Z,14.45
2018-05-11T21:25:30.293Z,14.44
2018-05-11T21:27:59.396Z,15.18
2018-05-11T21:30:28.834Z,15.34
2018-05-11T21:32:57.950Z,14.77
2018-05-11T21:35:26.550Z,14.63
2018-05-11T21:37:55.508Z,15.30
2018-05-11T21:40:24.498Z,14.73
2018-05-11T21:42:54.119Z,15.32
2018-05-11T21:45:23.180Z,14.72
2018-05-11T21:47:53.489Z,14.56
2018-05-11T21:50:22.734Z,14.46
2018-05-11T21:52:52.726Z,14.39
2018-05-11T21:55:23.070Z,15.07
2018-05-11T21:57:51.977Z,14.51
2018-05-11T22:00:21.469Z,14.37
2018-05-11T22:02:51.374Z,14.28
2018-05-11T22:05:22.136Z,14.19
2018-05-11T22:07:52.652Z,14.12
2018-05-11T22:10:23.868Z,14.05
2018-05-11T22:12:53.265Z,13.98
2018-05-11T22:15:22.866Z,13.92
2018-05-11T22:17:52.145Z,13.86
2018-05-11T22:20:21.670Z,13.79
2018-05-11T22:22:50.716Z,13.73
2018-05-11T22:25:19.421Z,14.43
2018-05-11T22:27:48.351Z,13.89
2018-05-11T22:30:21.566Z,13.80
2018-05-11T22:32:51.642Z,13.72
2018-05-11T22:35:21.835Z,13.66
2018-05-11T22:37:50.796Z,13.60
2018-05-11T22:40:19.949Z,13.57
2018-05-11T22:42:49.409Z,13.54
2018-05-11T22:45:18.545Z,13.52
2018-05-11T22:47:47.482Z,13.49
2018-05-11T22:50:16.626Z,14.22
2018-05-11T22:52:49.594Z,13.71
2018-05-11T22:55:18.576Z,13.60
2018-05-11T22:57:47.190Z,13.59
2018-05-11T23:00:34.672Z,13.60
2018-05-11T23:03:04.011Z,13.60
2018-05-11T23:05:33.605Z,13.64
2018-05-11T23:08:03.421Z,13.67
2018-05-11T23:10:32.505Z,14.44
2018-05-11T23:13:01.795Z,13.98
2018-05-11T23:15:30.457Z,14.63
2018-05-11T23:17:59.430Z,14.11
2018-05-11T23:20:28.739Z,13.96
2018-05-11T23:23:00.681Z,13.90
2018-05-11T23:25:30.538Z,13.81
2018-05-11T23:27:59.703Z,13.71
2018-05-11T23:30:30.190Z,13.61
2018-05-11T23:38:35.987Z,13.37
2018-05-11T23:41:04.663Z,13.34
2018-05-11T23:43:33.764Z,13.29
2018-05-11T23:46:02.612Z,14.02
2018-05-11T23:48:34.488Z,13.51
2018-05-11T23:51:03.131Z,13.37
2018-05-11T23:53:32.164Z,13.29
2018-05-11T23:56:03.717Z,13.23
2018-05-11T23:58:32.856Z,13.17
